createdAt,value
2023-08-14T00:00:39.659Z,40.06
2023-08-14T00:01:42.840Z,40.03
2023-08-14T00:02:45.958Z,40.11
2023-08-14T00:03:49.244Z,40.07
2023-08-14T00:04:52.304Z,40.06
2023-08-14T00:05:56.290Z,40.30
2023-08-14T00:06:59.350Z,40.51
2023-08-14T00:08:02.555Z,40.53
2023-08-14T00:09:05.327Z,40.51
2023-08-14T00:10:08.638Z,40.61
2023-08-14T00:11:11.501Z,40.62
2023-08-14T00:12:15.802Z,40.64
2023-08-14T00:13:19.617Z,40.61
2023-08-14T00:14:22.357Z,40.56
2023-08-14T00:15:25.713Z,40.62
2023-08-14T00:16:28.504Z,40.69
2023-08-14T00:17:31.284Z,40.70
2023-08-14T00:18:34.071Z,40.63
2023-08-14T00:19:38.502Z,40.65
2023-08-14T00:20:41.842Z,40.63
2023-08-14T00:21:44.636Z,40.67
2023-08-14T00:22:47.596Z,40.40
2023-08-14T00:23:50.572Z,40.56
2023-08-14T00:24:53.314Z,40.49
2023-08-14T00:25:56.149Z,40.73
2023-08-14T00:26:59.760Z,40.77
2023-08-14T00:28:03.729Z,40.87
2023-08-14T00:29:06.545Z,40.73
2023-08-14T00:30:11.437Z,40.76
2023-08-14T00:31:15.754Z,40.75
2023-08-14T00:32:19.140Z,40.67
2023-08-14T00:33:22.440Z,40.66
2023-08-14T00:34:25.226Z,40.48
2023-08-14T00:35:28.219Z,40.43
2023-08-14T00:36:31.284Z,40.46
2023-08-14T00:37:45.588Z,40.68
2023-08-14T00:38:48.339Z,40.64
2023-08-14T00:39:51.398Z,40.73
2023-08-14T00:40:54.485Z,40.57
2023-08-14T00:41:57.363Z,40.64
2023-08-14T00:43:00.399Z,40.66
2023-08-14T00:44:03.732Z,40.70
2023-08-14T00:45:07.668Z,40.43
2023-08-14T00:46:11.017Z,40.59
2023-08-14T00:47:14.500Z,40.59
2023-08-14T00:48:17.178Z,40.86
2023-08-14T00:49:19.870Z,40.74
2023-08-14T00:50:22.957Z,40.91
2023-08-14T00:51:25.816Z,40.74
2023-08-14T00:52:30.432Z,40.66
2023-08-14T00:53:33.773Z,40.57
2023-08-14T00:54:36.694Z,40.51
2023-08-14T00:55:39.624Z,40.77
2023-08-14T00:56:42.605Z,40.95
2023-08-14T00:57:45.862Z,40.82
2023-08-14T00:58:48.935Z,40.91
2023-08-14T00:59:51.820Z,40.78
2023-08-14T01:00:55.254Z,40.82
2023-08-14T01:01:58.509Z,40.87
2023-08-14T01:03:02.315Z,40.97
2023-08-14T01:04:07.030Z,41.10
2023-08-14T01:05:09.776Z,41.09
2023-08-14T01:06:13.159Z,41.25
2023-08-14T01:07:16.859Z,41.19
2023-08-14T01:08:19.699Z,41.20
2023-08-14T01:09:22.312Z,41.37
2023-08-14T01:10:27.878Z,41.25
2023-08-14T01:13:14.117Z,41.29
2023-08-14T01:14:29.048Z,41.38
2023-08-14T01:15:38.809Z,41.40
2023-08-14T01:16:44.661Z,41.25
2023-08-14T01:17:50.525Z,41.04
2023-08-14T01:18:53.834Z,41.20
2023-08-14T01:19:57.064Z,41.31
2023-08-14T01:21:03.575Z,41.42
2023-08-14T01:22:11.719Z,41.43
2023-08-14T01:23:34.378Z,41.45
2023-08-14T01:24:47.368Z,41.44
2023-08-14T01:25:51.370Z,41.36
2023-08-14T01:26:54.388Z,41.39
2023-08-14T01:27:57.239Z,41.33
2023-08-14T01:29:03.611Z,41.31
2023-08-14T01:30:08.445Z,41.44
2023-08-14T01:31:11.481Z,41.31
2023-08-14T01:32:14.609Z,41.24
2023-08-14T01:33:17.505Z,41.28
2023-08-14T01:34:23.163Z,41.27
2023-08-14T01:35:27.168Z,41.17
2023-08-14T01:36:36.987Z,41.08
2023-08-14T01:38:00.125Z,41.03
2023-08-14T01:39:07.147Z,41.04
2023-08-14T01:40:15.333Z,41.12
2023-08-14T01:42:41.947Z,41.31
2023-08-14T01:43:47.913Z,41.31
2023-08-14T01:44:52.931Z,41.34
2023-08-14T01:45:56.320Z,41.30
2023-08-14T01:46:59.393Z,41.30
2023-08-14T01:48:03.876Z,41.37
2023-08-14T01:49:06.869Z,41.29
2023-08-14T01:50:11.326Z,41.42
2023-08-14T01:51:14.374Z,41.35
2023-08-14T01:52:18.489Z,41.56
2023-08-14T01:53:21.976Z,41.50
2023-08-14T01:54:25.779Z,41.41
2023-08-14T01:55:28.601Z,41.44
2023-08-14T01:56:31.972Z,41.33
2023-08-14T01:57:35.615Z,41.13
2023-08-14T01:58:39.846Z,41.23
2023-08-14T01:59:44.631Z,41.06
2023-08-14T02:00:48.204Z,41.13
2023-08-14T02:01:50.987Z,41.32
2023-08-14T02:02:54.065Z,41.36
2023-08-14T02:03:56.970Z,41.46
2023-08-14T02:05:01.552Z,41.44
2023-08-14T02:06:04.505Z,41.41
2023-08-14T02:07:11.045Z,41.49
2023-08-14T02:08:14.058Z,41.60
2023-08-14T02:09:16.843Z,41.53
2023-08-14T02:10:20.616Z,41.44
2023-08-14T02:11:23.377Z,41.39
2023-08-14T02:12:26.359Z,41.36
2023-08-14T02:13:29.473Z,41.18
2023-08-14T02:14:32.516Z,41.35
2023-08-14T02:15:35.849Z,41.41
2023-08-14T02:16:40.991Z,41.25
2023-08-14T02:17:44.128Z,41.38
2023-08-14T02:18:47.614Z,41.49
2023-08-14T02:19:50.570Z,41.43
2023-08-14T02:20:54.325Z,41.33
2023-08-14T02:21:58.946Z,41.28
2023-08-14T02:23:01.781Z,41.35
2023-08-14T02:24:07.409Z,41.32
2023-08-14T02:25:10.827Z,41.19
2023-08-14T02:26:14.724Z,41.35
2023-08-14T02:27:19.133Z,41.23
2023-08-14T02:28:22.114Z,41.27
2023-08-14T02:29:25.631Z,41.33
2023-08-14T02:30:28.672Z,41.33
2023-08-14T02:31:32.003Z,41.40
2023-08-14T02:32:36.419Z,41.26
2023-08-14T02:33:39.408Z,41.18
2023-08-14T02:34:49.079Z,41.09
2023-08-14T02:35:51.945Z,41.24
2023-08-14T02:36:55.249Z,41.38
2023-08-14T02:37:58.747Z,41.46
2023-08-14T02:39:01.773Z,41.48
2023-08-14T02:40:07.815Z,41.48
2023-08-14T02:41:12.881Z,41.25
2023-08-14T02:42:17.140Z,41.37
2023-08-14T02:43:20.795Z,41.11
2023-08-14T02:44:23.823Z,40.82
2023-08-14T02:45:27.584Z,41.22
2023-08-14T02:46:30.949Z,41.21
2023-08-14T02:47:34.618Z,40.95
2023-08-14T02:48:37.534Z,40.96
2023-08-14T02:49:40.592Z,41.14
2023-08-14T02:50:44.398Z,41.48
2023-08-14T02:51:47.285Z,41.44
2023-08-14T02:52:50.531Z,41.43
2023-08-14T02:53:53.295Z,41.53
2023-08-14T02:54:56.159Z,41.51
2023-08-14T02:55:59.916Z,41.27
2023-08-14T02:57:03.061Z,40.88
2023-08-14T02:58:06.574Z,40.98
2023-08-14T02:59:09.537Z,40.87
2023-08-14T03:00:13.679Z,41.31
2023-08-14T03:01:17.795Z,41.62
2023-08-14T03:02:21.058Z,41.33
2023-08-14T03:03:24.608Z,41.52
2023-08-14T03:04:27.597Z,41.64
2023-08-14T03:05:30.651Z,41.61
2023-08-14T03:06:34.007Z,41.49
2023-08-14T03:07:36.913Z,41.49
2023-08-14T03:08:39.721Z,41.33
2023-08-14T03:09:43.515Z,41.43
2023-08-14T03:10:46.975Z,41.54
2023-08-14T03:11:51.000Z,41.13
2023-08-14T03:12:54.215Z,41.13
2023-08-14T03:13:56.943Z,41.29
2023-08-14T03:14:59.734Z,41.41
2023-08-14T03:16:02.714Z,42.01
2023-08-14T03:17:06.148Z,41.98
2023-08-14T03:18:08.902Z,41.80
2023-08-14T03:19:11.663Z,41.95
2023-08-14T03:20:15.111Z,41.91
2023-08-14T03:21:17.990Z,42.05
2023-08-14T03:22:20.767Z,42.26
2023-08-14T03:23:23.642Z,42.04
2023-08-14T03:24:26.776Z,42.05
2023-08-14T03:25:30.173Z,42.14
2023-08-14T03:26:33.757Z,42.08
2023-08-14T03:27:37.588Z,41.66
2023-08-14T03:28:41.662Z,41.88
2023-08-14T03:29:46.252Z,41.80
2023-08-14T03:30:49.458Z,41.76
2023-08-14T03:31:54.094Z,41.55
2023-08-14T03:32:58.305Z,41.23
2023-08-14T03:34:01.725Z,41.23
2023-08-14T03:35:05.519Z,42.05
2023-08-14T03:36:09.056Z,41.18
2023-08-14T03:37:12.801Z,41.75
2023-08-14T03:38:16.595Z,41.43
2023-08-14T03:39:19.944Z,41.49
2023-08-14T03:40:23.050Z,41.96
2023-08-14T03:41:27.218Z,41.66
2023-08-14T03:42:31.292Z,41.57
2023-08-14T03:43:34.488Z,41.16
2023-08-14T03:44:38.107Z,41.60
2023-08-14T03:45:40.966Z,41.47
2023-08-14T03:46:44.474Z,41.43
2023-08-14T03:47:48.053Z,41.44
2023-08-14T03:48:52.888Z,41.65
2023-08-14T03:49:55.686Z,41.48
2023-08-14T03:50:59.650Z,41.71
2023-08-14T03:52:03.262Z,41.34
2023-08-14T03:53:06.327Z,41.52
2023-08-14T03:54:09.848Z,41.65
2023-08-14T03:55:13.071Z,40.99
2023-08-14T03:56:16.251Z,41.27
2023-08-14T03:57:19.152Z,41.29
2023-08-14T03:58:21.855Z,41.57
2023-08-14T03:59:26.230Z,41.84
2023-08-14T04:00:29.468Z,41.32
2023-08-14T04:01:33.159Z,41.69
2023-08-14T04:02:37.382Z,41.86
2023-08-14T04:03:40.536Z,41.63
2023-08-14T04:04:43.473Z,42.17
2023-08-14T04:05:48.160Z,43.11
2023-08-14T04:06:51.555Z,43.04
2023-08-14T04:07:55.231Z,43.51
2023-08-14T04:08:58.273Z,43.74
2023-08-14T04:10:01.637Z,43.23
2023-08-14T04:11:05.624Z,43.74
2023-08-14T04:12:10.013Z,43.24
2023-08-14T04:13:14.145Z,43.80
2023-08-14T04:14:18.440Z,44.16
2023-08-14T04:15:22.378Z,43.96
2023-08-14T04:17:39.168Z,42.89
2023-08-14T04:18:42.364Z,42.98
2023-08-14T04:19:45.346Z,43.69
2023-08-14T04:20:48.294Z,44.06
2023-08-14T04:21:52.115Z,43.95
2023-08-14T04:22:55.165Z,43.68
2023-08-14T04:23:58.718Z,44.21
2023-08-14T04:25:01.657Z,43.75
2023-08-14T04:26:04.813Z,43.61
2023-08-14T04:27:08.050Z,43.80
2023-08-14T04:28:11.114Z,44.06
2023-08-14T04:29:16.013Z,43.92
2023-08-14T04:30:18.948Z,43.82
2023-08-14T04:31:22.892Z,43.56
2023-08-14T04:33:39.773Z,43.67
2023-08-14T04:34:42.982Z,43.58
2023-08-14T04:35:46.555Z,42.62
2023-08-14T04:36:50.387Z,43.42
2023-08-14T04:37:53.950Z,43.48
2023-08-14T04:38:56.878Z,43.63
2023-08-14T04:40:00.505Z,43.60
2023-08-14T04:41:03.464Z,43.47
2023-08-14T04:42:07.089Z,43.25
2023-08-14T04:43:10.537Z,43.25
2023-08-14T04:45:46.836Z,43.14
2023-08-14T04:48:04.615Z,43.50
2023-08-14T04:49:08.897Z,42.99
2023-08-14T04:50:14.378Z,43.49
2023-08-14T04:51:17.535Z,43.53
2023-08-14T04:52:22.664Z,43.25
2023-08-14T04:53:27.185Z,43.20
2023-08-14T04:55:43.649Z,43.27
2023-08-14T04:56:47.081Z,42.92
2023-08-14T04:57:50.328Z,43.19
2023-08-14T04:58:53.283Z,43.11
2023-08-14T04:59:56.937Z,43.14
2023-08-14T05:00:59.883Z,43.13
2023-08-14T05:02:04.946Z,43.21
2023-08-14T05:03:08.864Z,43.33
2023-08-14T05:04:11.655Z,43.18
2023-08-14T05:05:15.176Z,43.12
2023-08-14T05:06:20.281Z,42.80
2023-08-14T05:07:26.224Z,43.06
2023-08-14T05:08:29.491Z,42.64
2023-08-14T05:09:32.618Z,42.92
2023-08-14T05:10:38.150Z,42.90
2023-08-14T05:11:41.462Z,42.74
2023-08-14T05:12:44.426Z,42.85
2023-08-14T05:13:48.389Z,42.79
2023-08-14T05:14:54.835Z,42.83
2023-08-14T05:16:07.820Z,42.81
2023-08-14T05:17:04.560Z,42.47
2023-08-14T05:18:08.350Z,42.32
2023-08-14T05:19:11.692Z,42.43
2023-08-14T05:20:15.381Z,42.48
2023-08-14T05:21:18.208Z,42.64
2023-08-14T05:22:21.423Z,42.83
2023-08-14T05:23:26.568Z,42.96
2023-08-14T05:24:30.097Z,43.06
2023-08-14T05:25:32.965Z,43.12
2023-08-14T05:26:36.138Z,43.04
2023-08-14T05:27:39.607Z,43.10
2023-08-14T05:28:42.614Z,43.12
2023-08-14T05:29:47.314Z,43.23
2023-08-14T05:30:50.149Z,43.13
2023-08-14T05:31:52.723Z,43.08
2023-08-14T05:32:56.267Z,43.05
2023-08-14T05:33:58.996Z,43.16
2023-08-14T05:35:01.701Z,43.15
2023-08-14T05:36:04.936Z,43.17
2023-08-14T05:38:22.293Z,43.16
2023-08-14T05:39:27.325Z,43.11
2023-08-14T05:40:30.276Z,43.12
2023-08-14T05:41:33.996Z,43.03
2023-08-14T05:42:38.356Z,42.91
2023-08-14T05:43:42.680Z,42.90
2023-08-14T05:44:47.334Z,42.67
2023-08-14T05:45:50.446Z,42.17
2023-08-14T05:46:53.265Z,42.34
2023-08-14T05:47:57.012Z,42.30
2023-08-14T05:49:00.469Z,42.53
2023-08-14T05:50:04.286Z,42.68
2023-08-14T05:51:07.090Z,42.86
2023-08-14T05:52:09.754Z,42.33
2023-08-14T05:53:12.715Z,42.42
2023-08-14T05:54:15.502Z,42.46
2023-08-14T05:55:18.587Z,42.25
2023-08-14T05:56:21.466Z,42.27
2023-08-14T05:57:24.542Z,42.41
2023-08-14T05:58:28.070Z,42.63
2023-08-14T05:59:31.053Z,42.10
2023-08-14T06:00:35.116Z,42.34
2023-08-14T06:01:39.041Z,42.53
2023-08-14T06:02:42.020Z,42.67
2023-08-14T06:03:45.950Z,42.60
2023-08-14T06:04:50.342Z,42.62
2023-08-14T06:05:54.081Z,42.62
2023-08-14T06:06:57.081Z,42.45
2023-08-14T06:08:01.383Z,42.45
2023-08-14T06:09:04.768Z,42.50
2023-08-14T06:10:10.258Z,42.45
2023-08-14T06:11:13.592Z,42.27
2023-08-14T06:12:18.510Z,42.16
2023-08-14T06:13:21.915Z,41.27
2023-08-14T06:14:24.891Z,41.16
2023-08-14T06:15:28.905Z,40.78
2023-08-14T06:16:32.060Z,40.75
2023-08-14T06:17:35.134Z,41.24
2023-08-14T06:18:37.764Z,41.69
2023-08-14T06:19:42.770Z,41.92
2023-08-14T06:20:46.109Z,41.96
2023-08-14T06:21:49.293Z,41.96
2023-08-14T06:22:52.279Z,41.88
2023-08-14T06:23:55.239Z,42.09
2023-08-14T06:24:59.488Z,42.19
2023-08-14T06:26:03.768Z,42.01
2023-08-14T06:27:07.350Z,42.13
2023-08-14T06:28:13.818Z,42.11
2023-08-14T06:29:18.495Z,42.21
2023-08-14T06:30:23.716Z,42.25
2023-08-14T06:31:26.707Z,41.13
2023-08-14T06:32:29.654Z,41.71
2023-08-14T06:33:32.498Z,41.76
2023-08-14T06:34:35.995Z,41.92
2023-08-14T06:35:39.352Z,42.11
2023-08-14T06:36:43.125Z,42.02
2023-08-14T06:37:46.901Z,41.97
2023-08-14T06:38:50.053Z,41.85
2023-08-14T06:39:53.777Z,41.35
2023-08-14T06:40:56.839Z,41.41
2023-08-14T06:42:01.579Z,41.60
2023-08-14T06:43:06.775Z,41.80
2023-08-14T06:44:10.450Z,41.59
2023-08-14T06:45:14.126Z,41.47
2023-08-14T06:46:17.644Z,41.08
2023-08-14T06:47:21.672Z,41.41
2023-08-14T06:48:24.920Z,41.73
2023-08-14T06:49:29.108Z,41.73
2023-08-14T06:50:31.968Z,41.84
2023-08-14T06:51:35.048Z,41.99
2023-08-14T06:52:38.043Z,41.43
2023-08-14T06:53:42.797Z,41.18
2023-08-14T06:54:45.732Z,41.09
2023-08-14T06:55:49.254Z,41.49
2023-08-14T06:56:52.397Z,41.76
2023-08-14T06:57:57.281Z,41.84
2023-08-14T06:59:00.194Z,41.83
2023-08-14T07:01:22.182Z,42.21
2023-08-14T07:02:26.021Z,42.04
2023-08-14T07:03:29.711Z,41.79
2023-08-14T07:04:32.620Z,41.55
2023-08-14T07:05:35.770Z,40.95
2023-08-14T07:06:40.687Z,41.47
2023-08-14T07:07:44.202Z,41.95
2023-08-14T07:08:47.407Z,41.34
2023-08-14T07:09:50.100Z,41.74
2023-08-14T07:10:53.127Z,42.01
2023-08-14T07:11:55.745Z,42.13
2023-08-14T07:12:58.665Z,42.12
2023-08-14T07:14:01.263Z,42.23
2023-08-14T07:15:07.264Z,42.27
2023-08-14T07:16:10.231Z,41.64
2023-08-14T07:17:12.985Z,42.04
2023-08-14T07:18:18.596Z,42.20
2023-08-14T07:19:22.900Z,41.56
2023-08-14T07:20:27.131Z,41.29
2023-08-14T07:21:31.304Z,41.56
2023-08-14T07:22:34.253Z,41.43
2023-08-14T07:23:37.135Z,41.75
2023-08-14T07:24:41.150Z,41.88
2023-08-14T07:25:44.638Z,42.03
2023-08-14T07:26:48.383Z,40.83
2023-08-14T07:27:51.041Z,41.62
2023-08-14T07:28:53.927Z,41.44
2023-08-14T07:29:56.786Z,40.99
2023-08-14T07:31:00.096Z,40.77
2023-08-14T07:32:04.498Z,40.97
2023-08-14T07:34:24.444Z,40.35
2023-08-14T07:35:27.262Z,40.78
2023-08-14T07:36:30.765Z,40.90
2023-08-14T07:37:33.474Z,41.19
2023-08-14T07:38:36.354Z,41.62
2023-08-14T07:39:39.029Z,41.71
2023-08-14T07:40:43.467Z,40.83
2023-08-14T07:41:46.896Z,40.35
2023-08-14T07:42:49.545Z,41.05
2023-08-14T07:43:52.417Z,40.93
2023-08-14T07:44:56.247Z,41.53
2023-08-14T07:46:00.465Z,41.24
2023-08-14T07:47:03.711Z,41.58
2023-08-14T07:48:06.593Z,41.69
2023-08-14T07:49:09.416Z,41.68
2023-08-14T07:50:12.808Z,41.44
2023-08-14T07:51:15.865Z,41.36
2023-08-14T07:52:20.011Z,41.62
2023-08-14T07:53:23.021Z,41.74
2023-08-14T07:54:25.795Z,41.67
2023-08-14T07:55:29.591Z,42.00
2023-08-14T07:56:32.434Z,42.21
2023-08-14T07:57:35.633Z,41.24
2023-08-14T07:58:40.259Z,40.91
2023-08-14T07:59:43.005Z,41.52
2023-08-14T08:00:46.275Z,41.52
2023-08-14T08:01:50.430Z,41.71
2023-08-14T08:02:54.366Z,41.88
2023-08-14T08:03:57.971Z,41.48
2023-08-14T08:05:01.497Z,41.67
2023-08-14T08:06:05.665Z,41.06
2023-08-14T08:07:11.208Z,41.09
2023-08-14T08:08:14.072Z,41.10
2023-08-14T08:09:19.218Z,40.62
2023-08-14T08:10:21.919Z,40.91
2023-08-14T08:11:24.612Z,41.02
2023-08-14T08:12:27.184Z,41.52
2023-08-14T08:13:29.885Z,41.96
2023-08-14T08:14:33.552Z,41.66
2023-08-14T08:15:37.168Z,41.60
2023-08-14T08:16:40.344Z,41.77
2023-08-14T08:17:43.341Z,42.16
2023-08-14T08:18:46.297Z,41.92
2023-08-14T08:19:50.252Z,42.09
2023-08-14T08:20:54.326Z,41.56
2023-08-14T08:21:57.686Z,41.47
2023-08-14T08:23:01.246Z,41.17
2023-08-14T08:24:06.562Z,41.15
2023-08-14T08:25:10.954Z,41.16
2023-08-14T08:26:16.341Z,41.27
2023-08-14T08:27:18.858Z,41.65
2023-08-14T08:28:21.689Z,41.47
2023-08-14T08:29:25.021Z,42.15
2023-08-14T08:30:27.900Z,42.62
2023-08-14T08:31:31.264Z,41.70
2023-08-14T08:32:35.339Z,42.01
2023-08-14T08:33:38.308Z,42.71
2023-08-14T08:34:41.188Z,42.62
2023-08-14T08:35:44.895Z,42.82
2023-08-14T08:36:47.961Z,43.17
2023-08-14T08:37:51.379Z,43.20
2023-08-14T08:38:53.949Z,43.16
2023-08-14T08:39:56.935Z,43.26
2023-08-14T08:41:02.265Z,42.84
2023-08-14T08:42:06.331Z,42.35
2023-08-14T08:43:09.547Z,42.15
2023-08-14T08:44:35.459Z,42.15
2023-08-14T08:45:37.958Z,42.73
2023-08-14T08:46:49.671Z,43.09
2023-08-14T08:47:54.021Z,42.67
2023-08-14T08:48:56.800Z,42.98
2023-08-14T08:50:00.241Z,42.97
2023-08-14T08:51:03.633Z,42.43
2023-08-14T08:52:07.715Z,41.98
2023-08-14T08:53:11.058Z,42.18
2023-08-14T08:55:27.884Z,41.73
2023-08-14T08:56:30.860Z,42.68
2023-08-14T08:57:37.415Z,42.77
2023-08-14T08:58:38.240Z,42.97
2023-08-14T08:59:42.065Z,42.61
2023-08-14T09:00:45.030Z,42.10
2023-08-14T09:01:48.965Z,42.04
2023-08-14T09:02:52.204Z,42.08
2023-08-14T09:03:55.077Z,42.27
2023-08-14T09:04:58.554Z,42.39
2023-08-14T09:06:01.789Z,42.13
2023-08-14T09:07:06.349Z,42.45
2023-08-14T09:08:09.352Z,42.31
2023-08-14T09:09:12.926Z,42.38
2023-08-14T09:10:16.738Z,41.99
2023-08-14T09:11:19.960Z,41.78
2023-08-14T09:12:23.747Z,41.72
2023-08-14T09:13:32.288Z,41.76
2023-08-14T09:14:31.032Z,41.91
2023-08-14T09:15:34.480Z,41.39
2023-08-14T09:16:37.471Z,41.32
2023-08-14T09:17:40.265Z,41.08
2023-08-14T09:18:45.096Z,41.08
2023-08-14T09:19:48.655Z,41.49
2023-08-14T09:20:51.671Z,41.72
2023-08-14T09:21:55.475Z,41.87
2023-08-14T09:23:00.062Z,42.04
2023-08-14T09:24:03.631Z,42.22
2023-08-14T09:25:07.227Z,42.27
2023-08-14T09:26:12.491Z,42.17
2023-08-14T09:27:16.456Z,41.96
2023-08-14T09:28:19.709Z,41.87
2023-08-14T09:30:46.831Z,41.48
2023-08-14T09:31:49.506Z,41.34
2023-08-14T09:32:52.352Z,41.53
2023-08-14T09:33:57.444Z,41.67
2023-08-14T09:35:02.473Z,41.83
2023-08-14T09:36:05.945Z,41.90
2023-08-14T09:37:08.727Z,41.99
2023-08-14T09:38:13.831Z,42.06
2023-08-14T09:39:17.133Z,42.07
2023-08-14T09:40:21.095Z,42.12
2023-08-14T09:41:25.532Z,42.12
2023-08-14T09:42:29.365Z,42.20
2023-08-14T09:43:32.565Z,42.20
2023-08-14T09:44:37.268Z,42.21
2023-08-14T09:45:40.157Z,42.21
2023-08-14T09:46:43.195Z,42.19
2023-08-14T09:47:49.812Z,42.16
2023-08-14T09:48:52.488Z,42.14
2023-08-14T09:49:55.609Z,42.15
2023-08-14T09:50:58.396Z,42.13
2023-08-14T09:52:01.382Z,42.04
2023-08-14T09:53:05.275Z,41.92
2023-08-14T09:54:09.035Z,41.87
2023-08-14T09:55:14.031Z,41.90
2023-08-14T09:56:20.831Z,41.77
2023-08-14T09:57:27.540Z,41.90
2023-08-14T09:58:29.792Z,41.91
2023-08-14T10:00:46.070Z,41.94
2023-08-14T10:01:50.320Z,41.91
2023-08-14T10:02:53.938Z,41.82
2023-08-14T10:03:57.453Z,41.76
2023-08-14T10:05:01.728Z,41.82
2023-08-14T10:06:04.933Z,41.81
2023-08-14T10:07:09.009Z,41.81
2023-08-14T10:08:11.842Z,41.80
2023-08-14T10:09:15.247Z,41.80
2023-08-14T10:10:18.310Z,41.74
2023-08-14T10:11:22.898Z,41.67
2023-08-14T10:12:31.193Z,41.58
2023-08-14T10:13:37.605Z,41.52
2023-08-14T10:14:42.000Z,41.51
2023-08-14T10:15:47.246Z,41.35
2023-08-14T10:16:50.157Z,40.99
2023-08-14T10:17:59.926Z,41.07
2023-08-14T10:20:18.599Z,40.82
2023-08-14T10:21:22.633Z,40.66
2023-08-14T10:22:25.355Z,40.83
2023-08-14T10:25:52.604Z,40.83
2023-08-14T10:26:56.565Z,40.82
2023-08-14T10:27:59.360Z,40.48
2023-08-14T10:29:02.236Z,40.12
2023-08-14T10:30:07.029Z,40.10
2023-08-14T10:31:11.278Z,39.98
2023-08-14T10:32:14.291Z,40.00
2023-08-14T10:33:20.167Z,40.07
2023-08-14T10:35:52.820Z,40.15
2023-08-14T10:36:56.055Z,40.10
2023-08-14T10:38:08.810Z,40.11
2023-08-14T10:39:09.207Z,40.03
2023-08-14T10:41:33.128Z,39.99
2023-08-14T10:42:35.809Z,40.23
2023-08-14T10:43:38.322Z,40.59
2023-08-14T10:44:43.584Z,40.59
2023-08-14T10:45:47.358Z,40.54
2023-08-14T10:46:50.319Z,40.52
2023-08-14T10:47:56.687Z,40.57
2023-08-14T10:48:59.833Z,40.51
2023-08-14T10:50:04.548Z,40.51
2023-08-14T10:51:11.901Z,40.51
2023-08-14T10:52:21.476Z,40.52
2023-08-14T10:53:24.369Z,40.54
2023-08-14T10:54:27.734Z,40.66
2023-08-14T10:55:47.650Z,40.73
2023-08-14T10:58:02.416Z,40.59
2023-08-14T10:59:05.818Z,40.61
2023-08-14T11:00:26.542Z,40.58
2023-08-14T11:01:33.072Z,40.58
2023-08-14T11:04:05.263Z,40.47
2023-08-14T11:05:15.668Z,40.71
2023-08-14T11:06:27.225Z,40.79
2023-08-14T11:07:31.524Z,40.67
2023-08-14T11:08:52.147Z,40.56
2023-08-14T11:11:11.948Z,40.23
2023-08-14T11:12:15.827Z,40.30
2023-08-14T11:13:19.668Z,40.30
2023-08-14T11:14:23.327Z,40.29
2023-08-14T11:15:26.390Z,40.23
2023-08-14T11:16:29.261Z,40.18
2023-08-14T11:17:32.260Z,40.19
2023-08-14T11:18:36.544Z,40.20
2023-08-14T11:19:41.327Z,40.25
2023-08-14T11:20:47.020Z,40.28
2023-08-14T11:21:50.927Z,40.04
2023-08-14T11:22:54.173Z,39.77
2023-08-14T11:23:58.801Z,39.77
2023-08-14T11:25:01.743Z,39.76
2023-08-14T11:26:08.137Z,39.74
2023-08-14T11:27:11.846Z,39.73
2023-08-14T11:28:14.887Z,39.81
2023-08-14T11:29:18.099Z,39.82
2023-08-14T11:30:26.405Z,39.71
2023-08-14T11:31:34.381Z,39.67
2023-08-14T11:32:37.771Z,39.61
2023-08-14T11:33:41.175Z,39.57
2023-08-14T11:34:44.647Z,39.55
2023-08-14T11:35:48.369Z,39.51
2023-08-14T11:37:07.418Z,39.50
2023-08-14T11:38:08.870Z,39.40
2023-08-14T11:39:10.483Z,39.32
2023-08-14T11:40:16.609Z,39.29
2023-08-14T11:41:31.166Z,39.25
2023-08-14T11:42:25.834Z,39.31
2023-08-14T11:43:30.594Z,39.34
2023-08-14T11:44:34.485Z,39.34
2023-08-14T11:45:40.099Z,39.33
2023-08-14T11:46:43.482Z,39.31
2023-08-14T11:47:49.086Z,39.25
2023-08-14T11:48:54.157Z,39.21
2023-08-14T11:49:58.983Z,39.22
2023-08-14T11:51:04.735Z,39.16
2023-08-14T11:52:08.313Z,39.08
2023-08-14T11:53:12.175Z,39.04
2023-08-14T11:54:15.014Z,39.01
2023-08-14T11:56:32.565Z,39.11
2023-08-14T11:57:35.960Z,39.10
2023-08-14T11:58:42.182Z,39.08
2023-08-14T11:59:46.137Z,39.25
2023-08-14T12:00:51.968Z,39.38
2023-08-14T12:01:57.695Z,39.54
2023-08-14T12:03:01.045Z,39.59
2023-08-14T12:04:05.165Z,39.51
2023-08-14T12:05:09.486Z,39.41
2023-08-14T12:06:12.473Z,39.27
2023-08-14T12:07:22.066Z,39.13
2023-08-14T12:08:24.793Z,39.01
2023-08-14T12:09:29.399Z,39.02
2023-08-14T12:10:33.286Z,39.19
2023-08-14T12:11:36.629Z,39.27
2023-08-14T12:12:48.072Z,39.26
2023-08-14T12:15:08.261Z,38.83
2023-08-14T12:16:18.553Z,38.93
2023-08-14T12:17:21.114Z,38.92
2023-08-14T12:18:25.292Z,38.87
2023-08-14T12:19:30.157Z,38.77
2023-08-14T12:20:34.545Z,38.69
2023-08-14T12:21:37.403Z,38.71
2023-08-14T12:22:42.670Z,38.82
2023-08-14T12:24:59.649Z,38.93
2023-08-14T12:26:06.026Z,38.96
2023-08-14T12:27:19.679Z,38.94
2023-08-14T12:28:22.731Z,38.88
2023-08-14T12:29:25.742Z,38.81
2023-08-14T12:30:28.638Z,38.80
2023-08-14T12:31:33.706Z,38.76
2023-08-14T12:32:37.610Z,38.76
2023-08-14T12:34:56.760Z,39.34
2023-08-14T12:36:00.338Z,39.40
2023-08-14T12:38:19.606Z,39.30
2023-08-14T12:39:22.556Z,39.27
2023-08-14T12:40:27.788Z,39.44
2023-08-14T12:41:30.684Z,39.65
2023-08-14T12:42:35.110Z,39.67
2023-08-14T12:43:41.003Z,39.65
2023-08-14T12:44:44.655Z,39.77
2023-08-14T12:45:47.502Z,39.82
2023-08-14T12:46:53.076Z,39.85
2023-08-14T12:47:57.349Z,40.08
2023-08-14T12:49:00.316Z,40.24
2023-08-14T12:50:03.387Z,40.22
2023-08-14T12:53:19.210Z,40.39
2023-08-14T12:54:21.868Z,40.27
2023-08-14T12:55:25.242Z,40.29
2023-08-14T12:56:30.991Z,40.22
2023-08-14T12:57:34.035Z,40.22
2023-08-14T12:58:36.915Z,40.34
2023-08-14T12:59:39.864Z,40.44
2023-08-14T13:00:43.043Z,40.19
2023-08-14T13:01:47.582Z,40.08
2023-08-14T13:02:50.784Z,39.81
2023-08-14T13:03:56.802Z,39.67
2023-08-14T13:04:59.979Z,39.54
2023-08-14T13:06:03.796Z,39.59
2023-08-14T13:07:06.969Z,39.59
2023-08-14T13:08:10.259Z,39.56
2023-08-14T13:09:14.273Z,39.61
2023-08-14T13:10:17.485Z,39.53
2023-08-14T13:11:22.110Z,39.50
2023-08-14T13:12:25.547Z,39.59
2023-08-14T13:13:31.009Z,39.71
2023-08-14T13:14:33.740Z,39.66
2023-08-14T13:15:36.822Z,39.68
2023-08-14T13:16:40.442Z,39.75
2023-08-14T13:17:43.511Z,39.83
2023-08-14T13:18:46.434Z,40.07
2023-08-14T13:19:50.371Z,40.22
2023-08-14T13:20:54.491Z,40.21
2023-08-14T13:21:58.519Z,40.22
2023-08-14T13:23:01.215Z,40.21
2023-08-14T13:24:05.153Z,40.20
2023-08-14T13:25:09.619Z,40.16
2023-08-14T13:26:26.052Z,40.04
2023-08-14T13:27:18.344Z,39.96
2023-08-14T13:28:22.309Z,39.92
2023-08-14T13:30:28.640Z,39.84
2023-08-14T13:31:32.854Z,39.82
2023-08-14T13:32:35.902Z,39.86
2023-08-14T13:33:39.254Z,39.90
2023-08-14T13:34:41.891Z,39.86
2023-08-14T13:35:44.997Z,39.82
2023-08-14T13:36:48.401Z,39.76
2023-08-14T13:37:54.153Z,39.69
2023-08-14T13:38:58.385Z,39.71
2023-08-14T13:40:03.879Z,39.68
2023-08-14T13:41:06.750Z,39.69
2023-08-14T13:42:09.634Z,39.71
2023-08-14T13:43:14.518Z,39.71
2023-08-14T13:44:18.367Z,39.74
2023-08-14T13:45:22.197Z,39.74
2023-08-14T13:46:26.151Z,39.74
2023-08-14T13:47:36.598Z,39.72
2023-08-14T13:48:35.158Z,39.75
2023-08-14T13:49:40.292Z,39.72
2023-08-14T13:50:45.288Z,39.70
2023-08-14T13:53:04.330Z,39.71
2023-08-14T13:54:08.663Z,39.78
2023-08-14T13:55:11.469Z,39.75
2023-08-14T13:56:14.905Z,39.74
2023-08-14T13:57:17.850Z,39.72
2023-08-14T13:58:21.582Z,39.72
2023-08-14T13:59:24.324Z,39.78
2023-08-14T14:00:29.996Z,39.84
2023-08-14T14:01:33.411Z,39.86
2023-08-14T14:02:36.265Z,39.82
2023-08-14T14:03:42.068Z,39.82
2023-08-14T14:04:47.255Z,39.79
2023-08-14T14:05:51.063Z,39.78
2023-08-14T14:06:54.915Z,39.75
2023-08-14T14:07:58.490Z,39.75
2023-08-14T14:09:02.825Z,39.75
2023-08-14T14:10:07.142Z,39.71
2023-08-14T14:11:11.934Z,39.70
2023-08-14T14:12:16.787Z,39.69
2023-08-14T14:13:22.167Z,39.70
2023-08-14T14:14:25.684Z,39.76
2023-08-14T14:15:28.546Z,39.76
2023-08-14T14:16:52.890Z,39.82
2023-08-14T14:17:56.782Z,39.81
2023-08-14T14:18:59.722Z,39.79
2023-08-14T14:21:18.761Z,40.05
2023-08-14T14:22:23.796Z,40.04
2023-08-14T14:23:27.482Z,40.07
2023-08-14T14:24:33.212Z,40.07